sensor_id;sensor_type;location;lat;lon;timestamp;P1;durP1;ratioP1;P2;durP2;ratioP2
45887;SDS011;31595;51.418;7.572;2022-08-11T00:02:28;3.88;;;2.42;;
45887;SDS011;31595;51.418;7.572;2022-08-11T00:05:08;4.05;;;2.70;;
45887;SDS011;31595;51.418;7.572;2022-08-11T00:07:43;4.50;;;2.38;;
45887;SDS011;31595;51.418;7.572;2022-08-11T00:10:15;4.57;;;2.50;;
45887;SDS011;31595;51.418;7.572;2022-08-11T00:12:49;3.70;;;2.28;;
45887;SDS011;31595;51.418;7.572;2022-08-11T00:15:17;4.18;;;2.03;;
45887;SDS011;31595;51.418;7.572;2022-08-11T00:17:45;4.18;;;2.47;;
45887;SDS011;31595;51.418;7.572;2022-08-11T00:20:14;6.07;;;2.30;;
45887;SDS011;31595;51.418;7.572;2022-08-11T00:22:45;3.15;;;2.30;;
45887;SDS011;31595;51.418;7.572;2022-08-11T00:25:14;3.65;;;2.15;;
45887;SDS011;31595;51.418;7.572;2022-08-11T00:27:44;3.78;;;2.63;;
45887;SDS011;31595;51.418;7.572;2022-08-11T00:30:15;3.75;;;2.38;;
45887;SDS011;31595;51.418;7.572;2022-08-11T00:32:45;2.90;;;2.30;;
45887;SDS011;31595;51.418;7.572;2022-08-11T00:35:22;2.65;;;2.30;;
45887;SDS011;31595;51.418;7.572;2022-08-11T00:37:53;2.75;;;2.40;;
45887;SDS011;31595;51.418;7.572;2022-08-11T00:40:24;2.80;;;2.25;;
45887;SDS011;31595;51.418;7.572;2022-08-11T00:43:00;3.40;;;2.22;;
45887;SDS011;31595;51.418;7.572;2022-08-11T00:45:39;3.72;;;2.50;;
45887;SDS011;31595;51.418;7.572;2022-08-11T00:48:19;4.95;;;2.70;;
45887;SDS011;31595;51.418;7.572;2022-08-11T00:50:57;2.47;;;2.28;;
45887;SDS011;31595;51.418;7.572;2022-08-11T00:53:37;5.15;;;2.75;;
45887;SDS011;31595;51.418;7.572;2022-08-11T00:56:16;4.18;;;2.70;;
45887;SDS011;31595;51.418;7.572;2022-08-11T00:59:17;4.10;;;2.50;;
45887;SDS011;31595;51.418;7.572;2022-08-11T01:02:08;3.75;;;2.20;;
45887;SDS011;31595;51.418;7.572;2022-08-11T01:07:58;3.65;;;2.50;;
45887;SDS011;31595;51.418;7.572;2022-08-11T01:10:54;3.20;;;2.80;;
45887;SDS011;31595;51.418;7.572;2022-08-11T01:16:53;4.40;;;2.55;;
45887;SDS011;31595;51.418;7.572;2022-08-11T01:19:42;3.83;;;2.67;;
45887;SDS011;31595;51.418;7.572;2022-08-11T01:28:53;4.88;;;2.83;;
45887;SDS011;31595;51.418;7.572;2022-08-11T01:31:43;4.35;;;2.80;;
45887;SDS011;31595;51.418;7.572;2022-08-11T01:44:19;3.50;;;2.88;;
45887;SDS011;31595;51.418;7.572;2022-08-11T01:47:06;3.05;;;2.75;;
45887;SDS011;31595;51.418;7.572;2022-08-11T01:50:06;4.10;;;2.75;;
45887;SDS011;31595;51.418;7.572;2022-08-11T01:52:44;3.60;;;2.72;;
45887;SDS011;31595;51.418;7.572;2022-08-11T01:55:27;3.33;;;2.72;;
45887;SDS011;31595;51.418;7.572;2022-08-11T01:58:05;3.20;;;2.60;;
45887;SDS011;31595;51.418;7.572;2022-08-11T02:00:47;4.18;;;3.08;;
45887;SDS011;31595;51.418;7.572;2022-08-11T02:03:23;5.40;;;2.92;;
45887;SDS011;31595;51.418;7.572;2022-08-11T02:06:01;5.22;;;2.78;;
45887;SDS011;31595;51.418;7.572;2022-08-11T02:08:53;3.10;;;2.63;;
45887;SDS011;31595;51.418;7.572;2022-08-11T02:11:29;5.07;;;2.80;;
45887;SDS011;31595;51.418;7.572;2022-08-11T02:14:01;3.58;;;2.53;;
45887;SDS011;31595;51.418;7.572;2022-08-11T02:16:43;5.65;;;3.15;;
45887;SDS011;31595;51.418;7.572;2022-08-11T02:19:21;4.65;;;3.10;;
45887;SDS011;31595;51.418;7.572;2022-08-11T02:22:12;4.88;;;2.80;;
45887;SDS011;31595;51.418;7.572;2022-08-11T02:25:07;3.88;;;2.85;;
45887;SDS011;31595;51.418;7.572;2022-08-11T02:27:44;5.47;;;3.10;;
45887;SDS011;31595;51.418;7.572;2022-08-11T02:30:16;3.67;;;2.55;;
45887;SDS011;31595;51.418;7.572;2022-08-11T02:32:53;6.13;;;2.90;;
45887;SDS011;31595;51.418;7.572;2022-08-11T02:35:46;3.38;;;2.70;;
45887;SDS011;31595;51.418;7.572;2022-08-11T02:38:24;4.15;;;2.85;;
45887;SDS011;31595;51.418;7.572;2022-08-11T02:41:02;5.28;;;2.72;;
45887;SDS011;31595;51.418;7.572;2022-08-11T02:44:01;3.72;;;2.92;;
45887;SDS011;31595;51.418;7.572;2022-08-11T02:46:40;4.55;;;2.80;;
45887;SDS011;31595;51.418;7.572;2022-08-11T02:49:23;3.20;;;2.75;;
45887;SDS011;31595;51.418;7.572;2022-08-11T02:52:18;4.78;;;3.10;;
45887;SDS011;31595;51.418;7.572;2022-08-11T02:55:02;4.93;;;3.35;;
45887;SDS011;31595;51.418;7.572;2022-08-11T02:57:42;5.55;;;3.25;;
45887;SDS011;31595;51.418;7.572;2022-08-11T03:00:19;4.07;;;2.97;;
45887;SDS011;31595;51.418;7.572;2022-08-11T03:05:48;3.38;;;2.67;;
45887;SDS011;31595;51.418;7.572;2022-08-11T03:08:28;4.38;;;3.40;;
45887;SDS011;31595;51.418;7.572;2022-08-11T03:11:16;4.13;;;3.15;;
45887;SDS011;31595;51.418;7.572;2022-08-11T03:14:14;3.55;;;2.72;;
45887;SDS011;31595;51.418;7.572;2022-08-11T03:17:08;4.45;;;3.05;;
45887;SDS011;31595;51.418;7.572;2022-08-11T03:19:50;3.70;;;2.83;;
45887;SDS011;31595;51.418;7.572;2022-08-11T03:22:29;4.55;;;2.97;;
45887;SDS011;31595;51.418;7.572;2022-08-11T03:25:04;4.20;;;3.38;;
45887;SDS011;31595;51.418;7.572;2022-08-11T03:27:40;4.22;;;3.47;;
45887;SDS011;31595;51.418;7.572;2022-08-11T03:30:17;4.07;;;3.28;;
45887;SDS011;31595;51.418;7.572;2022-08-11T03:33:07;4.70;;;3.67;;
45887;SDS011;31595;51.418;7.572;2022-08-11T03:36:07;5.05;;;3.38;;
45887;SDS011;31595;51.418;7.572;2022-08-11T03:38:51;3.55;;;2.75;;
45887;SDS011;31595;51.418;7.572;2022-08-11T03:41:43;3.78;;;2.72;;
45887;SDS011;31595;51.418;7.572;2022-08-11T03:44:34;3.90;;;3.05;;
45887;SDS011;31595;51.418;7.572;2022-08-11T03:47:25;4.90;;;2.95;;
45887;SDS011;31595;51.418;7.572;2022-08-11T03:50:06;5.07;;;3.60;;
45887;SDS011;31595;51.418;7.572;2022-08-11T03:52:47;4.45;;;3.33;;
45887;SDS011;31595;51.418;7.572;2022-08-11T03:55:26;5.13;;;3.13;;
45887;SDS011;31595;51.418;7.572;2022-08-11T04:01:19;6.35;;;3.10;;
45887;SDS011;31595;51.418;7.572;2022-08-11T04:07:34;4.05;;;3.55;;
45887;SDS011;31595;51.418;7.572;2022-08-11T04:17:16;5.90;;;3.10;;
45887;SDS011;31595;51.418;7.572;2022-08-11T04:23:15;4.05;;;3.70;;
45887;SDS011;31595;51.418;7.572;2022-08-11T04:29:01;4.00;;;3.58;;
45887;SDS011;31595;51.418;7.572;2022-08-11T04:31:37;4.20;;;3.58;;
45887;SDS011;31595;51.418;7.572;2022-08-11T04:37:09;5.72;;;4.00;;
45887;SDS011;31595;51.418;7.572;2022-08-11T04:40:03;3.90;;;3.53;;
45887;SDS011;31595;51.418;7.572;2022-08-11T04:42:57;5.40;;;4.35;;
45887;SDS011;31595;51.418;7.572;2022-08-11T04:46:10;5.97;;;3.92;;
45887;SDS011;31595;51.418;7.572;2022-08-11T04:48:52;6.32;;;4.15;;
45887;SDS011;31595;51.418;7.572;2022-08-11T04:52:16;4.18;;;3.50;;
45887;SDS011;31595;51.418;7.572;2022-08-11T04:58:48;4.28;;;3.65;;
45887;SDS011;31595;51.418;7.572;2022-08-11T05:01:51;7.20;;;3.97;;
45887;SDS011;31595;51.418;7.572;2022-08-11T05:04:46;4.90;;;3.60;;
45887;SDS011;31595;51.418;7.572;2022-08-11T05:10:52;6.82;;;4.78;;
45887;SDS011;31595;51.418;7.572;2022-08-11T05:13:30;6.20;;;4.68;;
45887;SDS011;31595;51.418;7.572;2022-08-11T05:16:18;9.02;;;4.80;;
45887;SDS011;31595;51.418;7.572;2022-08-11T05:19:06;6.20;;;4.70;;
45887;SDS011;31595;51.418;7.572;2022-08-11T05:21:52;7.28;;;4.07;;
45887;SDS011;31595;51.418;7.572;2022-08-11T05:24:56;6.38;;;4.20;;
45887;SDS011;31595;51.418;7.572;2022-08-11T05:27:48;5.75;;;4.22;;
45887;SDS011;31595;51.418;7.572;2022-08-11T05:30:38;5.72;;;4.28;;
45887;SDS011;31595;51.418;7.572;2022-08-11T05:33:29;5.72;;;4.38;;
45887;SDS011;31595;51.418;7.572;2022-08-11T05:36:22;6.80;;;4.85;;
45887;SDS011;31595;51.418;7.572;2022-08-11T05:38:57;6.38;;;4.30;;
45887;SDS011;31595;51.418;7.572;2022-08-11T05:41:46;6.28;;;4.40;;
45887;SDS011;31595;51.418;7.572;2022-08-11T05:44:33;5.13;;;4.45;;
45887;SDS011;31595;51.418;7.572;2022-08-11T05:47:21;9.80;;;5.13;;
45887;SDS011;31595;51.418;7.572;2022-08-11T05:50:08;8.63;;;4.07;;
45887;SDS011;31595;51.418;7.572;2022-08-11T05:52:56;6.95;;;4.25;;
45887;SDS011;31595;51.418;7.572;2022-08-11T05:55:42;5.38;;;4.28;;
45887;SDS011;31595;51.418;7.572;2022-08-11T05:58:32;8.40;;;4.50;;
45887;SDS011;31595;51.418;7.572;2022-08-11T06:01:00;6.55;;;4.45;;
45887;SDS011;31595;51.418;7.572;2022-08-11T06:03:28;5.53;;;5.00;;
45887;SDS011;31595;51.418;7.572;2022-08-11T06:06:18;5.00;;;4.38;;
45887;SDS011;31595;51.418;7.572;2022-08-11T06:08:48;7.22;;;4.93;;
45887;SDS011;31595;51.418;7.572;2022-08-11T06:11:16;8.15;;;5.32;;
45887;SDS011;31595;51.418;7.572;2022-08-11T06:13:43;8.52;;;6.30;;
45887;SDS011;31595;51.418;7.572;2022-08-11T06:16:12;13.87;;;7.73;;
45887;SDS011;31595;51.418;7.572;2022-08-11T06:18:44;10.85;;;6.97;;
45887;SDS011;31595;51.418;7.572;2022-08-11T06:21:12;10.05;;;6.88;;
45887;SDS011;31595;51.418;7.572;2022-08-11T06:26:11;10.88;;;6.72;;
45887;SDS011;31595;51.418;7.572;2022-08-11T06:28:40;9.48;;;5.65;;
45887;SDS011;31595;51.418;7.572;2022-08-11T06:31:11;9.77;;;5.70;;
45887;SDS011;31595;51.418;7.572;2022-08-11T06:33:45;6.85;;;5.70;;
45887;SDS011;31595;51.418;7.572;2022-08-11T06:36:22;6.60;;;5.40;;
45887;SDS011;31595;51.418;7.572;2022-08-11T06:39:02;7.75;;;5.80;;
45887;SDS011;31595;51.418;7.572;2022-08-11T06:41:45;8.73;;;5.75;;
45887;SDS011;31595;51.418;7.572;2022-08-11T06:44:21;7.05;;;5.40;;
45887;SDS011;31595;51.418;7.572;2022-08-11T06:46:54;7.55;;;4.85;;
45887;SDS011;31595;51.418;7.572;2022-08-11T06:49:33;8.23;;;5.60;;
45887;SDS011;31595;51.418;7.572;2022-08-11T06:52:26;8.52;;;4.90;;
45887;SDS011;31595;51.418;7.572;2022-08-11T06:54:56;7.10;;;5.10;;
45887;SDS011;31595;51.418;7.572;2022-08-11T06:57:33;7.70;;;4.68;;
45887;SDS011;31595;51.418;7.572;2022-08-11T07:00:25;7.88;;;4.70;;
45887;SDS011;31595;51.418;7.572;2022-08-11T07:02:57;6.78;;;4.63;;
45887;SDS011;31595;51.418;7.572;2022-08-11T07:05:30;6.57;;;5.00;;
45887;SDS011;31595;51.418;7.572;2022-08-11T07:08:19;7.53;;;4.75;;
45887;SDS011;31595;51.418;7.572;2022-08-11T07:11:41;5.97;;;4.30;;
45887;SDS011;31595;51.418;7.572;2022-08-11T07:14:40;7.38;;;4.82;;
45887;SDS011;31595;51.418;7.572;2022-08-11T07:17:31;6.70;;;4.47;;
45887;SDS011;31595;51.418;7.572;2022-08-11T07:20:04;6.03;;;4.13;;
45887;SDS011;31595;51.418;7.572;2022-08-11T07:22:52;5.97;;;3.80;;
45887;SDS011;31595;51.418;7.572;2022-08-11T07:25:41;6.25;;;3.70;;
45887;SDS011;31595;51.418;7.572;2022-08-11T07:28:28;6.18;;;3.63;;
45887;SDS011;31595;51.418;7.572;2022-08-11T07:31:13;6.47;;;3.80;;
45887;SDS011;31595;51.418;7.572;2022-08-11T07:33:46;7.72;;;4.03;;
45887;SDS011;31595;51.418;7.572;2022-08-11T07:36:16;5.90;;;3.80;;
45887;SDS011;31595;51.418;7.572;2022-08-11T07:38:46;6.10;;;3.70;;
45887;SDS011;31595;51.418;7.572;2022-08-11T07:41:16;6.72;;;3.88;;
45887;SDS011;31595;51.418;7.572;2022-08-11T07:43:47;5.70;;;3.33;;
45887;SDS011;31595;51.418;7.572;2022-08-11T07:46:18;6.07;;;3.42;;
45887;SDS011;31595;51.418;7.572;2022-08-11T07:49:03;3.92;;;2.67;;
45887;SDS011;31595;51.418;7.572;2022-08-11T07:51:51;5.57;;;3.10;;
45887;SDS011;31595;51.418;7.572;2022-08-11T07:54:37;6.07;;;3.33;;
45887;SDS011;31595;51.418;7.572;2022-08-11T07:57:06;7.30;;;3.33;;
45887;SDS011;31595;51.418;7.572;2022-08-11T07:59:52;7.38;;;3.25;;
45887;SDS011;31595;51.418;7.572;2022-08-11T08:02:41;5.13;;;2.85;;
45887;SDS011;31595;51.418;7.572;2022-08-11T08:05:26;5.03;;;3.13;;
45887;SDS011;31595;51.418;7.572;2022-08-11T08:08:12;4.90;;;2.67;;
45887;SDS011;31595;51.418;7.572;2022-08-11T08:10:59;4.80;;;2.92;;
45887;SDS011;31595;51.418;7.572;2022-08-11T08:13:44;6.03;;;2.75;;
45887;SDS011;31595;51.418;7.572;2022-08-11T08:16:30;3.90;;;2.80;;
45887;SDS011;31595;51.418;7.572;2022-08-11T08:19:18;6.18;;;3.15;;
45887;SDS011;31595;51.418;7.572;2022-08-11T08:21:46;6.57;;;3.45;;
45887;SDS011;31595;51.418;7.572;2022-08-11T08:24:15;5.05;;;2.92;;
45887;SDS011;31595;51.418;7.572;2022-08-11T08:26:45;5.82;;;3.20;;
45887;SDS011;31595;51.418;7.572;2022-08-11T08:29:24;4.68;;;3.25;;
45887;SDS011;31595;51.418;7.572;2022-08-11T08:32:10;3.53;;;2.90;;
45887;SDS011;31595;51.418;7.572;2022-08-11T08:34:39;5.38;;;3.20;;
45887;SDS011;31595;51.418;7.572;2022-08-11T08:37:07;5.55;;;2.92;;
45887;SDS011;31595;51.418;7.572;2022-08-11T08:39:34;5.22;;;3.63;;
45887;SDS011;31595;51.418;7.572;2022-08-11T08:42:04;4.55;;;3.65;;
45887;SDS011;31595;51.418;7.572;2022-08-11T08:44:38;4.10;;;3.25;;
45887;SDS011;31595;51.418;7.572;2022-08-11T08:47:09;4.05;;;3.28;;
45887;SDS011;31595;51.418;7.572;2022-08-11T08:49:45;3.92;;;3.20;;
45887;SDS011;31595;51.418;7.572;2022-08-11T08:52:17;6.13;;;3.97;;
45887;SDS011;31595;51.418;7.572;2022-08-11T08:54:50;5.03;;;4.47;;
45887;SDS011;31595;51.418;7.572;2022-08-11T08:57:22;4.45;;;3.78;;
45887;SDS011;31595;51.418;7.572;2022-08-11T08:59:53;7.28;;;5.07;;
45887;SDS011;31595;51.418;7.572;2022-08-11T09:02:23;4.53;;;4.13;;
45887;SDS011;31595;51.418;7.572;2022-08-11T09:04:53;7.05;;;3.20;;
45887;SDS011;31595;51.418;7.572;2022-08-11T09:07:21;5.32;;;3.45;;
45887;SDS011;31595;51.418;7.572;2022-08-11T09:09:52;4.97;;;4.15;;
45887;SDS011;31595;51.418;7.572;2022-08-11T09:12:25;5.10;;;4.32;;
45887;SDS011;31595;51.418;7.572;2022-08-11T09:14:54;5.45;;;4.25;;
45887;SDS011;31595;51.418;7.572;2022-08-11T09:17:30;7.10;;;5.30;;
45887;SDS011;31595;51.418;7.572;2022-08-11T09:20:03;5.85;;;5.40;;
45887;SDS011;31595;51.418;7.572;2022-08-11T09:22:32;7.70;;;4.40;;
45887;SDS011;31595;51.418;7.572;2022-08-11T09:25:19;6.25;;;5.22;;
45887;SDS011;31595;51.418;7.572;2022-08-11T09:28:06;5.28;;;4.78;;
45887;SDS011;31595;51.418;7.572;2022-08-11T09:30:39;5.25;;;4.70;;
45887;SDS011;31595;51.418;7.572;2022-08-11T09:33:09;4.97;;;4.63;;
45887;SDS011;31595;51.418;7.572;2022-08-11T09:35:40;4.63;;;4.00;;
45887;SDS011;31595;51.418;7.572;2022-08-11T09:38:12;5.07;;;4.47;;
45887;SDS011;31595;51.418;7.572;2022-08-11T09:40:59;5.10;;;4.65;;
45887;SDS011;31595;51.418;7.572;2022-08-11T09:43:30;5.30;;;3.42;;
45887;SDS011;31595;51.418;7.572;2022-08-11T09:48:51;5.30;;;4.80;;
45887;SDS011;31595;51.418;7.572;2022-08-11T09:51:22;7.20;;;6.18;;
45887;SDS011;31595;51.418;7.572;2022-08-11T09:53:51;7.03;;;5.70;;
45887;SDS011;31595;51.418;7.572;2022-08-11T09:56:19;6.38;;;5.78;;
45887;SDS011;31595;51.418;7.572;2022-08-11T09:59:07;6.30;;;5.78;;
45887;SDS011;31595;51.418;7.572;2022-08-11T10:01:36;6.05;;;4.47;;
45887;SDS011;31595;51.418;7.572;2022-08-11T10:04:08;5.75;;;5.35;;
45887;SDS011;31595;51.418;7.572;2022-08-11T10:06:42;5.18;;;4.65;;
45887;SDS011;31595;51.418;7.572;2022-08-11T10:09:33;5.65;;;5.15;;
45887;SDS011;31595;51.418;7.572;2022-08-11T10:12:05;6.00;;;5.50;;
45887;SDS011;31595;51.418;7.572;2022-08-11T10:14:36;5.82;;;5.32;;
45887;SDS011;31595;51.418;7.572;2022-08-11T10:17:26;5.03;;;3.55;;
45887;SDS011;31595;51.418;7.572;2022-08-11T10:19:59;7.00;;;4.57;;
45887;SDS011;31595;51.418;7.572;2022-08-11T10:22:30;5.05;;;3.08;;
45887;SDS011;31595;51.418;7.572;2022-08-11T10:25:16;5.40;;;4.63;;
45887;SDS011;31595;51.418;7.572;2022-08-11T10:28:02;4.82;;;4.45;;
45887;SDS011;31595;51.418;7.572;2022-08-11T10:30:35;4.47;;;3.85;;
45887;SDS011;31595;51.418;7.572;2022-08-11T10:33:17;4.90;;;4.53;;
45887;SDS011;31595;51.418;7.572;2022-08-11T10:36:03;4.80;;;4.40;;
45887;SDS011;31595;51.418;7.572;2022-08-11T10:38:34;5.30;;;4.78;;
45887;SDS011;31595;51.418;7.572;2022-08-11T10:41:06;4.55;;;4.03;;
45887;SDS011;31595;51.418;7.572;2022-08-11T10:43:51;6.80;;;6.30;;
45887;SDS011;31595;51.418;7.572;2022-08-11T10:46:19;4.93;;;3.40;;
45887;SDS011;31595;51.418;7.572;2022-08-11T10:49:05;5.90;;;5.40;;
45887;SDS011;31595;51.418;7.572;2022-08-11T10:51:36;6.20;;;5.07;;
45887;SDS011;31595;51.418;7.572;2022-08-11T10:54:22;4.10;;;3.72;;
45887;SDS011;31595;51.418;7.572;2022-08-11T10:57:07;5.05;;;3.38;;
45887;SDS011;31595;51.418;7.572;2022-08-11T10:59:58;5.55;;;5.03;;
45887;SDS011;31595;51.418;7.572;2022-08-11T11:02:28;5.57;;;5.18;;
45887;SDS011;31595;51.418;7.572;2022-08-11T11:04:57;4.78;;;4.00;;
45887;SDS011;31595;51.418;7.572;2022-08-11T11:07:30;4.85;;;4.43;;
45887;SDS011;31595;51.418;7.572;2022-08-11T11:10:05;3.70;;;3.33;;
45887;SDS011;31595;51.418;7.572;2022-08-11T11:12:34;3.40;;;3.17;;
45887;SDS011;31595;51.418;7.572;2022-08-11T11:15:23;4.38;;;4.07;;
45887;SDS011;31595;51.418;7.572;2022-08-11T11:18:11;6.22;;;5.78;;
45887;SDS011;31595;51.418;7.572;2022-08-11T11:20:46;4.30;;;3.58;;
45887;SDS011;31595;51.418;7.572;2022-08-11T11:23:17;6.45;;;3.80;;
45887;SDS011;31595;51.418;7.572;2022-08-11T11:26:10;4.15;;;3.80;;
45887;SDS011;31595;51.418;7.572;2022-08-11T11:29:02;7.57;;;3.28;;
45887;SDS011;31595;51.418;7.572;2022-08-11T11:31:45;8.10;;;5.47;;
45887;SDS011;31595;51.418;7.572;2022-08-11T11:34:22;6.50;;;5.90;;
45887;SDS011;31595;51.418;7.572;2022-08-11T11:37:02;4.38;;;3.72;;
45887;SDS011;31595;51.418;7.572;2022-08-11T11:39:31;4.30;;;3.72;;
45887;SDS011;31595;51.418;7.572;2022-08-11T11:42:01;5.93;;;5.43;;
45887;SDS011;31595;51.418;7.572;2022-08-11T11:44:32;4.40;;;4.00;;
45887;SDS011;31595;51.418;7.572;2022-08-11T11:47:03;4.55;;;3.85;;
45887;SDS011;31595;51.418;7.572;2022-08-11T11:49:32;5.13;;;4.25;;
45887;SDS011;31595;51.418;7.572;2022-08-11T11:52:04;5.40;;;4.93;;
45887;SDS011;31595;51.418;7.572;2022-08-11T11:54:33;6.53;;;5.93;;
45887;SDS011;31595;51.418;7.572;2022-08-11T11:57:03;4.05;;;3.65;;
45887;SDS011;31595;51.418;7.572;2022-08-11T11:59:45;5.50;;;4.43;;
45887;SDS011;31595;51.418;7.572;2022-08-11T12:02:31;6.15;;;5.65;;
45887;SDS011;31595;51.418;7.572;2022-08-11T12:04:59;5.18;;;3.70;;
45887;SDS011;31595;51.418;7.572;2022-08-11T12:07:27;5.88;;;4.00;;
45887;SDS011;31595;51.418;7.572;2022-08-11T12:10:13;3.90;;;2.97;;
45887;SDS011;31595;51.418;7.572;2022-08-11T12:12:43;5.30;;;3.45;;
45887;SDS011;31595;51.418;7.572;2022-08-11T12:15:29;4.35;;;3.90;;
45887;SDS011;31595;51.418;7.572;2022-08-11T12:17:57;3.35;;;3.05;;
45887;SDS011;31595;51.418;7.572;2022-08-11T12:20:26;4.35;;;3.90;;
45887;SDS011;31595;51.418;7.572;2022-08-11T12:23:05;4.53;;;4.13;;
45887;SDS011;31595;51.418;7.572;2022-08-11T12:25:50;4.32;;;3.92;;
45887;SDS011;31595;51.418;7.572;2022-08-11T12:28:36;4.50;;;3.97;;
45887;SDS011;31595;51.418;7.572;2022-08-11T12:31:05;5.03;;;2.90;;
45887;SDS011;31595;51.418;7.572;2022-08-11T12:33:34;4.75;;;4.25;;
45887;SDS011;31595;51.418;7.572;2022-08-11T12:36:02;4.88;;;4.30;;
45887;SDS011;31595;51.418;7.572;2022-08-11T12:38:31;4.47;;;4.05;;
45887;SDS011;31595;51.418;7.572;2022-08-11T12:41:00;4.57;;;4.13;;
45887;SDS011;31595;51.418;7.572;2022-08-11T12:43:47;4.57;;;3.13;;
45887;SDS011;31595;51.418;7.572;2022-08-11T12:49:03;4.90;;;4.18;;
45887;SDS011;31595;51.418;7.572;2022-08-11T12:51:53;5.95;;;4.20;;
45887;SDS011;31595;51.418;7.572;2022-08-11T12:54:26;3.00;;;2.78;;
45887;SDS011;31595;51.418;7.572;2022-08-11T12:56:57;4.28;;;3.88;;
45887;SDS011;31595;51.418;7.572;2022-08-11T12:59:45;3.78;;;3.47;;
45887;SDS011;31595;51.418;7.572;2022-08-11T13:05:15;5.43;;;3.47;;
45887;SDS011;31595;51.418;7.572;2022-08-11T13:07:44;3.38;;;3.08;;
45887;SDS011;31595;51.418;7.572;2022-08-11T13:10:13;5.30;;;3.35;;
45887;SDS011;31595;51.418;7.572;2022-08-11T13:13:05;4.18;;;3.88;;
45887;SDS011;31595;51.418;7.572;2022-08-11T13:15:34;3.55;;;3.25;;
45887;SDS011;31595;51.418;7.572;2022-08-11T13:18:02;4.38;;;4.03;;
45887;SDS011;31595;51.418;7.572;2022-08-11T13:20:32;3.85;;;2.90;;
45887;SDS011;31595;51.418;7.572;2022-08-11T13:23:01;4.30;;;3.90;;
45887;SDS011;31595;51.418;7.572;2022-08-11T13:25:30;4.15;;;3.42;;
45887;SDS011;31595;51.418;7.572;2022-08-11T13:27:59;5.40;;;3.97;;
45887;SDS011;31595;51.418;7.572;2022-08-11T13:30:28;4.15;;;3.75;;
45887;SDS011;31595;51.418;7.572;2022-08-11T13:33:15;4.07;;;2.95;;
45887;SDS011;31595;51.418;7.572;2022-08-11T13:35:44;4.30;;;3.92;;
45887;SDS011;31595;51.418;7.572;2022-08-11T13:38:14;3.75;;;3.42;;
45887;SDS011;31595;51.418;7.572;2022-08-11T13:40:42;4.82;;;3.30;;
45887;SDS011;31595;51.418;7.572;2022-08-11T13:43:11;6.07;;;3.70;;
45887;SDS011;31595;51.418;7.572;2022-08-11T13:45:40;3.95;;;3.10;;
45887;SDS011;31595;51.418;7.572;2022-08-11T13:48:12;3.85;;;3.55;;
45887;SDS011;31595;51.418;7.572;2022-08-11T13:50:42;3.55;;;3.25;;
45887;SDS011;31595;51.418;7.572;2022-08-11T13:53:28;3.95;;;2.50;;
45887;SDS011;31595;51.418;7.572;2022-08-11T13:55:56;4.10;;;3.67;;
45887;SDS011;31595;51.418;7.572;2022-08-11T13:58:25;4.93;;;4.43;;
45887;SDS011;31595;51.418;7.572;2022-08-11T14:00:54;4.53;;;3.03;;
45887;SDS011;31595;51.418;7.572;2022-08-11T14:03:24;5.28;;;2.92;;
45887;SDS011;31595;51.418;7.572;2022-08-11T14:05:53;3.63;;;2.75;;
45887;SDS011;31595;51.418;7.572;2022-08-11T14:08:25;4.22;;;2.80;;
45887;SDS011;31595;51.418;7.572;2022-08-11T14:10:58;3.88;;;3.03;;
45887;SDS011;31595;51.418;7.572;2022-08-11T14:13:56;4.75;;;3.28;;
45887;SDS011;31595;51.418;7.572;2022-08-11T14:16:25;4.22;;;3.00;;
45887;SDS011;31595;51.418;7.572;2022-08-11T14:18:59;3.55;;;2.97;;
45887;SDS011;31595;51.418;7.572;2022-08-11T14:21:28;3.20;;;2.63;;
45887;SDS011;31595;51.418;7.572;2022-08-11T14:24:18;3.45;;;2.40;;
45887;SDS011;31595;51.418;7.572;2022-08-11T14:26:46;3.40;;;2.53;;
45887;SDS011;31595;51.418;7.572;2022-08-11T14:29:16;5.00;;;2.85;;
45887;SDS011;31595;51.418;7.572;2022-08-11T14:31:47;4.15;;;3.10;;
45887;SDS011;31595;51.418;7.572;2022-08-11T14:34:18;4.80;;;3.60;;
45887;SDS011;31595;51.418;7.572;2022-08-11T14:36:48;3.97;;;3.45;;
45887;SDS011;31595;51.418;7.572;2022-08-11T14:39:18;2.95;;;2.47;;
45887;SDS011;31595;51.418;7.572;2022-08-11T14:41:49;3.13;;;2.55;;
45887;SDS011;31595;51.418;7.572;2022-08-11T14:44:36;5.32;;;2.85;;
45887;SDS011;31595;51.418;7.572;2022-08-11T14:47:22;3.78;;;2.30;;
45887;SDS011;31595;51.418;7.572;2022-08-11T14:49:54;3.85;;;2.42;;
45887;SDS011;31595;51.418;7.572;2022-08-11T14:52:23;3.40;;;2.70;;
45887;SDS011;31595;51.418;7.572;2022-08-11T14:54:51;3.25;;;2.60;;
45887;SDS011;31595;51.418;7.572;2022-08-11T14:57:38;2.83;;;2.42;;
45887;SDS011;31595;51.418;7.572;2022-08-11T15:00:08;4.38;;;2.55;;
45887;SDS011;31595;51.418;7.572;2022-08-11T15:02:40;3.13;;;2.83;;
45887;SDS011;31595;51.418;7.572;2022-08-11T15:05:27;4.90;;;3.35;;
45887;SDS011;31595;51.418;7.572;2022-08-11T15:07:56;4.18;;;2.53;;
45887;SDS011;31595;51.418;7.572;2022-08-11T15:10:25;4.68;;;2.42;;
45887;SDS011;31595;51.418;7.572;2022-08-11T15:12:53;5.78;;;2.40;;
45887;SDS011;31595;51.418;7.572;2022-08-11T15:18:05;4.38;;;2.88;;
45887;SDS011;31595;51.418;7.572;2022-08-11T15:20:37;5.35;;;2.80;;
45887;SDS011;31595;51.418;7.572;2022-08-11T15:23:22;4.53;;;2.88;;
45887;SDS011;31595;51.418;7.572;2022-08-11T15:26:09;2.88;;;2.55;;
45887;SDS011;31595;51.418;7.572;2022-08-11T15:28:40;4.57;;;2.75;;
45887;SDS011;31595;51.418;7.572;2022-08-11T15:31:29;5.50;;;3.20;;
45887;SDS011;31595;51.418;7.572;2022-08-11T15:34:16;3.83;;;3.50;;
45887;SDS011;31595;51.418;7.572;2022-08-11T15:37:06;4.45;;;3.10;;
45887;SDS011;31595;51.418;7.572;2022-08-11T15:39:57;3.55;;;2.58;;
45887;SDS011;31595;51.418;7.572;2022-08-11T15:42:48;4.68;;;3.17;;
45887;SDS011;31595;51.418;7.572;2022-08-11T15:45:39;4.55;;;3.05;;
45887;SDS011;31595;51.418;7.572;2022-08-11T15:48:19;3.28;;;2.50;;
45887;SDS011;31595;51.418;7.572;2022-08-11T15:51:01;4.80;;;2.92;;
45887;SDS011;31595;51.418;7.572;2022-08-11T15:53:40;3.95;;;2.47;;
45887;SDS011;31595;51.418;7.572;2022-08-11T15:56:09;3.45;;;2.65;;
45887;SDS011;31595;51.418;7.572;2022-08-11T15:58:40;4.78;;;2.65;;
45887;SDS011;31595;51.418;7.572;2022-08-11T16:01:29;4.53;;;2.58;;
45887;SDS011;31595;51.418;7.572;2022-08-11T16:04:17;5.38;;;2.40;;
45887;SDS011;31595;51.418;7.572;2022-08-11T16:06:50;4.63;;;3.00;;
45887;SDS011;31595;51.418;7.572;2022-08-11T16:09:22;3.30;;;2.50;;
45887;SDS011;31595;51.418;7.572;2022-08-11T16:11:53;3.00;;;2.70;;
45887;SDS011;31595;51.418;7.572;2022-08-11T16:14:25;3.75;;;2.55;;
45887;SDS011;31595;51.418;7.572;2022-08-11T16:17:10;4.20;;;2.63;;
45887;SDS011;31595;51.418;7.572;2022-08-11T16:19:42;5.05;;;2.80;;
45887;SDS011;31595;51.418;7.572;2022-08-11T16:22:12;3.92;;;2.63;;
45887;SDS011;31595;51.418;7.572;2022-08-11T16:24:47;3.47;;;2.53;;
45887;SDS011;31595;51.418;7.572;2022-08-11T16:27:17;3.95;;;2.50;;
45887;SDS011;31595;51.418;7.572;2022-08-11T16:29:45;3.95;;;2.63;;
45887;SDS011;31595;51.418;7.572;2022-08-11T16:32:17;4.45;;;2.65;;
45887;SDS011;31595;51.418;7.572;2022-08-11T16:34:49;3.38;;;2.28;;
45887;SDS011;31595;51.418;7.572;2022-08-11T16:40:23;4.38;;;2.40;;
45887;SDS011;31595;51.418;7.572;2022-08-11T16:42:51;7.05;;;2.80;;
45887;SDS011;31595;51.418;7.572;2022-08-11T16:45:38;6.13;;;3.08;;
45887;SDS011;31595;51.418;7.572;2022-08-11T16:48:25;4.05;;;2.97;;
45887;SDS011;31595;51.418;7.572;2022-08-11T16:50:56;3.53;;;3.10;;
45887;SDS011;31595;51.418;7.572;2022-08-11T16:53:26;4.07;;;2.72;;
45887;SDS011;31595;51.418;7.572;2022-08-11T16:55:57;4.10;;;2.47;;
45887;SDS011;31595;51.418;7.572;2022-08-11T16:58:28;3.42;;;2.38;;
45887;SDS011;31595;51.418;7.572;2022-08-11T17:01:15;2.50;;;2.30;;
45887;SDS011;31595;51.418;7.572;2022-08-11T17:03:47;4.10;;;2.38;;
45887;SDS011;31595;51.418;7.572;2022-08-11T17:06:37;4.47;;;2.75;;
45887;SDS011;31595;51.418;7.572;2022-08-11T17:09:27;3.60;;;2.85;;